createdAt,value
2023-02-18T00:00:29.632Z,77.90
2023-02-18T00:02:35.878Z,78.70
2023-02-18T00:04:42.413Z,78.70
2023-02-18T00:06:48.570Z,78.60
2023-02-18T00:08:55.494Z,79.20
2023-02-18T00:11:03.393Z,79.70
2023-02-18T00:13:09.766Z,79.50
2023-02-18T00:15:15.715Z,79.60
2023-02-18T00:17:22.071Z,79.60
2023-02-18T00:19:28.073Z,79.40
2023-02-18T00:21:35.309Z,79.40
2023-02-18T00:23:43.789Z,79.40
2023-02-18T00:25:50.318Z,79.40
2023-02-18T00:27:58.028Z,77.70
2023-02-18T00:30:05.135Z,78.10
2023-02-18T00:32:12.655Z,79.30
2023-02-18T00:34:18.968Z,78.50
2023-02-18T00:36:25.587Z,79.10
2023-02-18T00:38:31.892Z,78.20
2023-02-18T00:40:40.644Z,79.60
2023-02-18T00:42:46.917Z,79.90
2023-02-18T00:44:55.021Z,78.30
2023-02-18T00:47:01.649Z,77.00
2023-02-18T00:49:08.160Z,75.20
2023-02-18T00:51:15.027Z,75.50
2023-02-18T00:53:21.137Z,75.30
2023-02-18T00:55:27.547Z,73.30
2023-02-18T00:57:33.866Z,73.80
2023-02-18T00:59:40.018Z,73.30
2023-02-18T01:01:47.905Z,72.90
2023-02-18T01:03:54.474Z,73.40
2023-02-18T01:06:00.849Z,72.70
2023-02-18T01:08:06.854Z,72.90
2023-02-18T01:10:13.114Z,72.90
2023-02-18T01:12:19.424Z,73.10
2023-02-18T01:14:26.915Z,73.30
2023-02-18T01:16:33.436Z,72.90
2023-02-18T01:18:41.585Z,71.60
2023-02-18T01:20:48.099Z,71.80
2023-02-18T01:22:54.465Z,70.40
2023-02-18T01:25:00.833Z,69.70
2023-02-18T01:27:07.548Z,70.60
2023-02-18T01:29:13.602Z,71.20
2023-02-18T01:31:20.195Z,71.50
2023-02-18T01:33:24.896Z,71.50
2023-02-18T01:35:32.899Z,70.90
2023-02-18T01:37:38.851Z,70.20
2023-02-18T01:39:45.093Z,70.70
2023-02-18T01:41:51.209Z,71.10
2023-02-18T01:44:11.806Z,71.20
2023-02-18T01:46:19.053Z,70.80
2023-02-18T01:48:26.946Z,70.90
2023-02-18T01:50:35.550Z,70.80
2023-02-18T01:52:41.912Z,70.90
2023-02-18T01:54:49.605Z,69.40
2023-02-18T01:56:58.171Z,69.10
2023-02-18T01:59:06.478Z,69.10
2023-02-18T02:01:13.461Z,69.30
2023-02-18T02:03:20.739Z,69.90
2023-02-18T02:05:27.252Z,68.90
2023-02-18T02:07:38.275Z,68.90
2023-02-18T02:09:46.176Z,69.50
2023-02-18T02:12:28.376Z,69.60
2023-02-18T02:14:54.810Z,68.50
2023-02-18T02:17:07.934Z,69.30
2023-02-18T02:19:46.037Z,69.00
2023-02-18T02:22:32.344Z,68.60
2023-02-18T02:25:20.124Z,68.10
2023-02-18T02:27:31.857Z,67.70
2023-02-18T02:29:59.132Z,67.20
2023-02-18T02:32:22.265Z,66.90
2023-02-18T02:34:55.663Z,68.20
2023-02-18T02:37:11.290Z,67.60
2023-02-18T02:39:23.235Z,67.70
2023-02-18T02:41:46.546Z,66.70
2023-02-18T02:43:56.150Z,66.50
2023-02-18T02:46:09.786Z,66.70
2023-02-18T02:48:27.251Z,66.80
2023-02-18T02:50:44.100Z,66.10
2023-02-18T02:52:55.378Z,65.90
2023-02-18T02:55:02.456Z,67.20
2023-02-18T02:57:32.179Z,65.80
2023-02-18T02:59:54.556Z,66.40
2023-02-18T03:02:09.009Z,65.90
2023-02-18T03:04:34.980Z,66.40
2023-02-18T03:07:05.265Z,65.60
2023-02-18T03:09:17.674Z,65.10
2023-02-18T03:11:24.897Z,64.20
2023-02-18T03:13:47.026Z,64.40
2023-02-18T03:16:01.627Z,64.20
2023-02-18T03:18:16.603Z,63.70
2023-02-18T03:20:28.847Z,63.20
2023-02-18T03:22:43.402Z,62.70
2023-02-18T03:24:54.731Z,62.70
2023-02-18T03:27:07.540Z,61.50
2023-02-18T03:29:18.520Z,61.40
2023-02-18T03:31:31.179Z,61.40
2023-02-18T03:33:43.576Z,60.20
2023-02-18T03:35:52.753Z,61.40
2023-02-18T03:38:06.393Z,61.60
2023-02-18T03:40:15.054Z,61.20
2023-02-18T03:42:23.515Z,61.10
2023-02-18T03:44:30.645Z,61.60
2023-02-18T03:46:39.876Z,59.60
2023-02-18T03:48:47.722Z,60.30
2023-02-18T03:50:54.961Z,60.90
2023-02-18T03:53:03.880Z,60.80
2023-02-18T03:55:11.825Z,60.70
2023-02-18T03:57:18.651Z,61.20
2023-02-18T03:59:25.674Z,59.80
2023-02-18T04:01:32.674Z,59.90
2023-02-18T04:03:39.734Z,58.30
2023-02-18T04:05:46.606Z,58.40
2023-02-18T04:07:53.787Z,58.00
2023-02-18T04:10:02.406Z,59.30
2023-02-18T04:12:10.246Z,58.80
2023-02-18T04:14:17.992Z,59.40
2023-02-18T04:16:25.110Z,58.90
2023-02-18T04:18:32.154Z,58.40
2023-02-18T04:20:40.354Z,58.70
2023-02-18T04:22:47.484Z,58.50
2023-02-18T04:24:54.720Z,58.00
2023-02-18T04:27:03.230Z,57.80
2023-02-18T04:29:10.425Z,58.50
2023-02-18T04:31:29.623Z,58.90
2023-02-18T04:33:36.865Z,59.30
2023-02-18T04:35:43.892Z,59.30
2023-02-18T04:37:51.122Z,58.70
2023-02-18T04:39:57.967Z,58.20
2023-02-18T04:42:09.938Z,57.80
2023-02-18T04:44:16.812Z,57.70
2023-02-18T04:46:23.957Z,57.50
2023-02-18T04:48:30.765Z,56.60
2023-02-18T04:50:38.049Z,56.90
2023-02-18T04:52:44.877Z,56.10
2023-02-18T04:54:52.414Z,56.60
2023-02-18T04:56:59.649Z,56.20
2023-02-18T04:59:08.828Z,56.00
2023-02-18T05:01:16.356Z,55.90
2023-02-18T05:03:23.755Z,55.30
2023-02-18T05:05:30.785Z,55.80
2023-02-18T05:07:38.330Z,55.50
2023-02-18T05:09:45.353Z,55.60
2023-02-18T05:11:52.789Z,55.90
2023-02-18T05:13:59.817Z,55.70
2023-02-18T05:16:09.435Z,56.10
2023-02-18T05:18:16.496Z,57.20
2023-02-18T05:20:23.831Z,55.40
2023-02-18T05:22:30.594Z,56.10
2023-02-18T05:24:37.981Z,55.90
2023-02-18T05:26:45.114Z,55.60
2023-02-18T05:28:52.345Z,56.40
2023-02-18T05:30:59.664Z,57.20
2023-02-18T05:33:08.909Z,55.80
2023-02-18T05:35:16.141Z,57.00
2023-02-18T05:37:23.322Z,56.50
2023-02-18T05:39:30.095Z,56.20
2023-02-18T05:41:37.329Z,56.80
2023-02-18T05:44:01.156Z,56.40
2023-02-18T05:46:08.924Z,56.00
2023-02-18T05:48:17.871Z,57.00
2023-02-18T05:50:25.255Z,56.30
2023-02-18T05:52:32.280Z,56.50
2023-02-18T05:54:40.405Z,55.50
2023-02-18T05:56:47.346Z,54.60
2023-02-18T05:58:54.492Z,54.30
2023-02-18T06:01:01.366Z,55.00
2023-02-18T06:03:09.060Z,54.50
2023-02-18T06:05:17.935Z,53.80
2023-02-18T06:07:25.316Z,55.20
2023-02-18T06:09:32.144Z,53.60
2023-02-18T06:11:39.681Z,53.90
2023-02-18T06:13:46.719Z,55.30
2023-02-18T06:15:55.287Z,53.90
2023-02-18T06:18:02.454Z,54.10
2023-02-18T06:20:10.752Z,53.90
2023-02-18T06:22:19.585Z,52.80
2023-02-18T06:24:26.917Z,52.60
2023-02-18T06:26:34.103Z,52.90
2023-02-18T06:28:41.187Z,52.50
2023-02-18T06:30:49.536Z,51.70
2023-02-18T06:32:56.925Z,51.80
2023-02-18T06:35:03.952Z,52.90
2023-02-18T06:37:11.233Z,52.40
2023-02-18T06:39:19.848Z,52.60
2023-02-18T06:41:27.131Z,52.20
2023-02-18T06:43:34.312Z,53.30
2023-02-18T06:45:43.423Z,51.90
2023-02-18T06:47:51.040Z,52.10
2023-02-18T06:49:58.365Z,51.80
2023-02-18T06:52:05.087Z,50.40
2023-02-18T06:54:12.267Z,50.80
2023-02-18T06:56:20.814Z,50.30
2023-02-18T06:58:28.200Z,50.70
2023-02-18T07:00:35.106Z,51.00
2023-02-18T07:02:42.307Z,51.70
2023-02-18T07:04:49.072Z,53.10
2023-02-18T07:06:56.368Z,51.30
2023-02-18T07:09:03.358Z,52.60
2023-02-18T07:11:11.136Z,50.80
2023-02-18T07:13:20.130Z,50.50
2023-02-18T07:15:28.998Z,50.40
2023-02-18T07:17:37.307Z,51.70
2023-02-18T07:19:44.590Z,52.00
2023-02-18T07:21:51.348Z,51.60
2023-02-18T07:23:58.458Z,52.40
2023-02-18T07:26:12.559Z,51.50
2023-02-18T07:28:21.415Z,52.30
2023-02-18T07:30:28.303Z,50.60
2023-02-18T07:32:35.461Z,51.60
2023-02-18T07:34:42.596Z,52.00
2023-02-18T07:36:49.981Z,51.40
2023-02-18T07:38:56.803Z,51.90
2023-02-18T07:41:04.240Z,51.40
2023-02-18T07:43:11.267Z,50.90
2023-02-18T07:45:20.703Z,51.30
2023-02-18T07:47:27.786Z,51.90
2023-02-18T07:49:34.868Z,51.60
2023-02-18T07:51:41.893Z,50.50
2023-02-18T07:53:48.816Z,50.30
2023-02-18T07:55:55.933Z,51.00
2023-02-18T07:58:04.357Z,50.30
2023-02-18T08:00:13.742Z,50.10
2023-02-18T08:02:24.924Z,50.00
2023-02-18T08:04:32.469Z,49.80
2023-02-18T08:06:42.511Z,51.50
2023-02-18T08:08:49.587Z,51.40
2023-02-18T08:10:58.633Z,51.10
2023-02-18T08:13:07.076Z,51.50
2023-02-18T08:15:14.150Z,50.80
2023-02-18T08:17:22.771Z,50.30
2023-02-18T08:19:29.695Z,49.90
2023-02-18T08:21:36.828Z,50.00
2023-02-18T08:23:43.920Z,49.70
2023-02-18T08:25:51.970Z,49.80
2023-02-18T08:27:59.497Z,49.90
2023-02-18T08:30:07.428Z,50.30
2023-02-18T08:32:14.636Z,50.50
2023-02-18T08:34:23.662Z,50.70
2023-02-18T08:36:31.760Z,50.90
2023-02-18T08:38:39.247Z,50.70
2023-02-18T08:40:46.324Z,50.50
2023-02-18T08:42:53.717Z,50.20
2023-02-18T08:45:00.774Z,49.50
2023-02-18T08:48:16.043Z,50.70
2023-02-18T08:49:37.942Z,50.60
2023-02-18T08:51:45.190Z,49.20
2023-02-18T08:53:52.715Z,49.50
2023-02-18T08:56:00.201Z,49.60
2023-02-18T08:58:09.282Z,50.10
2023-02-18T09:00:18.201Z,50.00
2023-02-18T09:02:25.228Z,49.60
2023-02-18T09:04:32.817Z,50.40
2023-02-18T09:06:43.205Z,50.00
2023-02-18T09:08:50.618Z,49.60
2023-02-18T09:11:00.205Z,50.50
2023-02-18T09:13:07.585Z,52.00
2023-02-18T09:15:14.614Z,52.10
2023-02-18T09:17:21.950Z,52.30
2023-02-18T09:19:29.693Z,52.50
2023-02-18T09:21:37.282Z,51.90
2023-02-18T09:23:46.307Z,51.60
2023-02-18T09:25:53.897Z,51.00
2023-02-18T09:28:00.722Z,50.40
2023-02-18T09:30:08.621Z,50.20
2023-02-18T09:32:25.475Z,50.10
2023-02-18T09:34:39.928Z,49.90
2023-02-18T09:36:46.802Z,50.10
2023-02-18T09:38:56.340Z,51.10
2023-02-18T09:41:06.099Z,50.70
2023-02-18T09:43:26.008Z,50.70
2023-02-18T09:45:33.499Z,50.30
2023-02-18T09:47:43.086Z,50.80
2023-02-18T09:49:53.054Z,50.80
2023-02-18T09:52:05.692Z,51.00
2023-02-18T09:54:17.593Z,51.00
2023-02-18T09:56:30.490Z,50.70
2023-02-18T09:58:38.811Z,51.30
2023-02-18T10:00:48.489Z,52.00
2023-02-18T10:03:00.445Z,52.30
2023-02-18T10:05:08.035Z,52.20
2023-02-18T10:07:26.374Z,52.40
2023-02-18T10:09:39.021Z,52.20
2023-02-18T10:11:52.366Z,52.40
2023-02-18T10:14:02.008Z,52.40
2023-02-18T10:16:11.472Z,51.90
2023-02-18T10:18:31.709Z,52.10
2023-02-18T10:20:39.410Z,52.20
2023-02-18T10:22:46.763Z,52.50
2023-02-18T10:24:57.882Z,52.40
2023-02-18T10:27:06.910Z,52.10
2023-02-18T10:29:21.663Z,52.10
2023-02-18T10:31:34.198Z,52.20
2023-02-18T10:33:50.114Z,52.30
2023-02-18T10:36:00.882Z,52.70
2023-02-18T10:38:15.431Z,52.90
2023-02-18T10:40:29.380Z,53.10
2023-02-18T10:42:49.764Z,53.10
2023-02-18T10:45:07.081Z,53.30
2023-02-18T10:47:24.297Z,53.30
2023-02-18T10:49:58.311Z,53.40
2023-02-18T10:52:08.562Z,53.70
2023-02-18T10:54:18.560Z,53.80
2023-02-18T10:56:44.943Z,54.10
2023-02-18T10:58:53.505Z,54.50
2023-02-18T11:01:01.098Z,54.80
2023-02-18T11:03:20.769Z,54.90
2023-02-18T11:05:30.203Z,54.90
2023-02-18T11:07:39.381Z,55.00
2023-02-18T11:09:51.267Z,55.30
2023-02-18T11:12:09.212Z,55.70
2023-02-18T11:14:21.097Z,55.80
2023-02-18T11:16:39.901Z,55.80
2023-02-18T11:18:49.854Z,55.80
2023-02-18T11:21:01.076Z,55.90
2023-02-18T11:23:21.108Z,56.50
2023-02-18T11:25:30.235Z,56.90
2023-02-18T11:27:45.043Z,56.80
2023-02-18T11:29:54.787Z,57.00
2023-02-18T11:32:03.693Z,57.40
2023-02-18T11:34:16.779Z,58.10
2023-02-18T11:36:28.117Z,58.80
2023-02-18T11:38:50.706Z,59.40
2023-02-18T11:41:04.641Z,58.90
2023-02-18T11:43:18.464Z,58.80
2023-02-18T11:45:34.523Z,59.00
2023-02-18T11:47:42.026Z,59.30
2023-02-18T11:50:02.669Z,59.60
2023-02-18T11:52:20.945Z,60.00
2023-02-18T11:54:31.159Z,60.40
2023-02-18T11:56:39.663Z,60.40
2023-02-18T11:58:51.249Z,60.50
2023-02-18T12:01:00.442Z,61.00
2023-02-18T12:03:11.349Z,61.30
2023-02-18T12:05:23.093Z,61.40
2023-02-18T12:07:34.316Z,61.30
2023-02-18T12:09:46.055Z,61.40
2023-02-18T12:11:57.650Z,61.80
2023-02-18T12:14:12.506Z,61.90
2023-02-18T12:16:29.635Z,62.00
2023-02-18T12:19:00.735Z,62.30
2023-02-18T12:21:26.014Z,62.50
2023-02-18T12:23:39.494Z,63.00
2023-02-18T12:25:55.636Z,62.80
2023-02-18T12:28:20.277Z,63.20
2023-02-18T12:30:59.169Z,62.70
2023-02-18T12:33:15.714Z,62.80
2023-02-18T12:35:46.745Z,62.90
2023-02-18T12:38:16.507Z,63.60
2023-02-18T12:40:48.107Z,63.80
2023-02-18T12:43:03.332Z,64.50
2023-02-18T12:45:38.173Z,64.90
2023-02-18T12:48:05.311Z,65.00
2023-02-18T12:50:43.313Z,66.00
2023-02-18T12:53:02.647Z,67.80
2023-02-18T12:55:29.829Z,67.90
2023-02-18T12:57:43.821Z,68.30
2023-02-18T13:00:31.079Z,67.80
2023-02-18T13:02:59.078Z,67.20
2023-02-18T13:05:12.383Z,68.30
2023-02-18T13:07:46.091Z,68.50
2023-02-18T13:10:11.951Z,68.80
2023-02-18T13:12:24.315Z,68.40
2023-02-18T13:14:34.876Z,68.20
2023-02-18T13:16:44.641Z,68.30
2023-02-18T13:19:03.830Z,69.60
2023-02-18T13:21:12.904Z,70.70
2023-02-18T13:23:24.386Z,70.60
2023-02-18T13:25:31.772Z,70.60
2023-02-18T13:27:44.233Z,70.20
2023-02-18T13:29:56.016Z,70.00
2023-02-18T13:32:13.080Z,70.00
2023-02-18T13:34:28.915Z,70.60
2023-02-18T13:37:02.300Z,71.50
2023-02-18T13:39:12.509Z,71.00
2023-02-18T13:41:20.102Z,70.80
2023-02-18T13:43:34.887Z,71.20
2023-02-18T13:45:43.835Z,71.50
2023-02-18T13:47:52.518Z,71.20
2023-02-18T13:50:16.681Z,71.60
2023-02-18T13:52:24.887Z,72.20
2023-02-18T13:54:35.754Z,72.40
2023-02-18T13:56:46.573Z,72.50
2023-02-18T13:58:57.131Z,73.00
2023-02-18T14:01:07.933Z,73.40
2023-02-18T14:03:35.035Z,73.30
2023-02-18T14:05:45.506Z,74.30
2023-02-18T14:07:54.828Z,74.00
2023-02-18T14:10:03.095Z,74.20
2023-02-18T14:12:40.273Z,74.70
2023-02-18T14:14:47.705Z,75.70
2023-02-18T14:17:39.135Z,75.30
2023-02-18T14:19:46.085Z,76.60
2023-02-18T14:21:54.699Z,76.80
2023-02-18T14:24:08.136Z,76.90
2023-02-18T14:26:26.248Z,76.80
2023-02-18T14:28:47.509Z,76.90
2023-02-18T14:30:55.579Z,77.10
2023-02-18T14:33:04.321Z,76.90
2023-02-18T14:35:23.588Z,77.10
2023-02-18T14:37:55.024Z,76.90
2023-02-18T14:40:15.049Z,77.10
2023-02-18T14:42:34.203Z,76.70
2023-02-18T14:44:59.324Z,77.50
2023-02-18T14:47:19.091Z,77.80
2023-02-18T14:49:42.423Z,77.80
2023-02-18T14:51:51.307Z,77.80
2023-02-18T14:54:00.484Z,77.60
2023-02-18T14:56:11.963Z,77.70
2023-02-18T14:58:29.477Z,77.80
2023-02-18T15:00:42.582Z,77.60
2023-02-18T15:02:52.821Z,77.20
2023-02-18T15:05:14.366Z,77.00
2023-02-18T15:07:24.606Z,77.20
2023-02-18T15:09:33.421Z,77.80
2023-02-18T15:11:43.998Z,78.20
2023-02-18T15:13:50.871Z,78.40
2023-02-18T15:16:00.648Z,78.40
2023-02-18T15:18:08.345Z,78.60
2023-02-18T15:20:17.149Z,79.20
2023-02-18T15:22:25.901Z,79.10
2023-02-18T15:24:36.795Z,79.30
2023-02-18T15:26:50.124Z,79.40
2023-02-18T15:29:02.366Z,79.20
2023-02-18T15:31:15.718Z,79.10
2023-02-18T15:33:24.086Z,79.10
2023-02-18T15:35:33.902Z,78.70
2023-02-18T15:37:40.857Z,78.90
2023-02-18T15:39:50.240Z,78.80
2023-02-18T15:41:58.341Z,78.90
2023-02-18T15:44:09.270Z,79.30
2023-02-18T15:46:17.443Z,79.60
2023-02-18T15:48:33.622Z,80.00
2023-02-18T15:50:48.345Z,80.20
2023-02-18T15:52:56.560Z,79.90
2023-02-18T15:55:10.257Z,79.60
2023-02-18T15:57:19.228Z,79.90
2023-02-18T15:59:31.325Z,80.00
2023-02-18T16:01:38.579Z,79.80
2023-02-18T16:03:49.993Z,79.90
2023-02-18T16:06:15.089Z,79.90
2023-02-18T16:08:28.371Z,81.10
2023-02-18T16:10:50.514Z,81.30
2023-02-18T16:13:01.368Z,81.50
2023-02-18T16:15:08.699Z,81.30
2023-02-18T16:17:20.768Z,81.80
2023-02-18T16:19:29.312Z,81.80
2023-02-18T16:21:40.850Z,81.40
2023-02-18T16:23:55.453Z,81.60
2023-02-18T16:26:31.024Z,81.60
2023-02-18T16:28:37.698Z,81.50
2023-02-18T16:30:46.325Z,81.40
2023-02-18T16:32:53.474Z,81.70
2023-02-18T16:35:00.682Z,81.60
2023-02-18T16:37:23.905Z,82.20
2023-02-18T16:39:32.396Z,83.10
2023-02-18T16:41:40.639Z,83.60
2023-02-18T16:43:47.538Z,83.60
2023-02-18T16:45:55.911Z,83.80
2023-02-18T16:48:03.609Z,84.00
2023-02-18T16:50:17.029Z,84.20
2023-02-18T16:52:24.365Z,84.20
2023-02-18T16:54:31.396Z,83.90
2023-02-18T16:56:39.966Z,83.10
2023-02-18T16:58:47.280Z,83.40
2023-02-18T17:00:55.707Z,83.40
2023-02-18T17:03:03.544Z,83.20
2023-02-18T17:05:25.489Z,82.90
2023-02-18T17:07:33.850Z,82.70
2023-02-18T17:09:40.764Z,81.70
2023-02-18T17:11:50.953Z,81.80
2023-02-18T17:13:59.213Z,82.20
2023-02-18T17:16:06.269Z,82.70
2023-02-18T17:18:14.098Z,82.80
2023-02-18T17:20:21.329Z,83.40
2023-02-18T17:22:28.245Z,83.70
2023-02-18T17:24:35.084Z,84.00
2023-02-18T17:26:42.124Z,84.00
2023-02-18T17:28:50.964Z,84.20
2023-02-18T17:31:00.266Z,84.20
2023-02-18T17:33:09.017Z,84.80
2023-02-18T17:35:24.862Z,85.60
2023-02-18T17:37:31.739Z,85.60
2023-02-18T17:39:38.609Z,85.60
2023-02-18T17:41:46.433Z,85.40
2023-02-18T17:43:55.697Z,85.20
2023-02-18T17:46:03.167Z,85.30
2023-02-18T17:48:10.436Z,85.40
2023-02-18T17:50:17.696Z,85.50
2023-02-18T17:52:33.688Z,86.00
2023-02-18T17:54:40.661Z,86.10
2023-02-18T17:56:47.978Z,86.40
2023-02-18T17:58:56.238Z,86.20
2023-02-18T18:01:03.406Z,85.90
2023-02-18T18:03:10.357Z,85.60
2023-02-18T18:05:24.087Z,85.70
2023-02-18T18:07:30.979Z,85.90
2023-02-18T18:09:38.085Z,85.80
2023-02-18T18:11:44.824Z,85.80
2023-02-18T18:13:52.102Z,86.00
2023-02-18T18:16:00.622Z,85.70
2023-02-18T18:18:07.832Z,85.70
2023-02-18T18:20:15.181Z,86.00
2023-02-18T18:22:22.913Z,86.00
2023-02-18T18:24:29.943Z,85.90
2023-02-18T18:26:37.034Z,85.80
2023-02-18T18:28:44.000Z,86.00
2023-02-18T18:30:53.229Z,86.20
2023-02-18T18:33:02.155Z,86.10
2023-02-18T18:35:26.889Z,86.30
2023-02-18T18:37:33.660Z,86.30
2023-02-18T18:39:40.599Z,86.50
2023-02-18T18:41:47.414Z,87.00
2023-02-18T18:43:54.818Z,87.20
2023-02-18T18:46:02.398Z,87.20
2023-02-18T18:48:11.833Z,87.30
2023-02-18T18:50:19.120Z,87.00
2023-02-18T18:52:27.935Z,87.10
2023-02-18T18:54:34.767Z,87.30
2023-02-18T18:56:42.001Z,87.30
2023-02-18T18:58:49.245Z,87.00
2023-02-18T19:00:57.985Z,86.70
2023-02-18T19:03:05.347Z,86.50
2023-02-18T19:05:24.889Z,86.20
2023-02-18T19:07:32.042Z,86.50
2023-02-18T19:09:38.815Z,86.60
2023-02-18T19:11:46.088Z,86.40
2023-02-18T19:13:52.971Z,86.30
2023-02-18T19:16:06.650Z,85.70
2023-02-18T19:18:17.523Z,85.00
2023-02-18T19:20:27.684Z,85.10
2023-02-18T19:22:34.394Z,84.90
2023-02-18T19:24:43.057Z,84.50
2023-02-18T19:26:50.041Z,84.60
2023-02-18T19:28:57.374Z,84.70
2023-02-18T19:31:04.477Z,84.90
2023-02-18T19:33:11.668Z,85.00
2023-02-18T19:35:18.567Z,85.10
2023-02-18T19:37:27.381Z,85.60
2023-02-18T19:39:34.091Z,85.50
2023-02-18T19:41:41.028Z,85.30
2023-02-18T19:43:49.132Z,85.10
2023-02-18T19:45:56.650Z,85.10
2023-02-18T19:48:05.091Z,85.50
2023-02-18T19:50:13.174Z,85.60
2023-02-18T19:52:20.634Z,85.30
2023-02-18T19:54:30.674Z,85.10
2023-02-18T19:56:37.892Z,84.90
2023-02-18T19:58:44.834Z,84.80
2023-02-18T20:00:52.209Z,84.90
2023-02-18T20:02:59.202Z,85.20
2023-02-18T20:05:07.621Z,85.60
2023-02-18T20:07:15.096Z,85.80
2023-02-18T20:09:22.369Z,85.70
2023-02-18T20:11:32.793Z,85.40
2023-02-18T20:13:39.919Z,85.20
2023-02-18T20:15:47.024Z,85.20
2023-02-18T20:17:54.387Z,85.40
2023-02-18T20:20:01.125Z,85.40
2023-02-18T20:22:11.254Z,85.00
2023-02-18T20:24:18.233Z,84.80
2023-02-18T20:26:26.064Z,84.70
2023-02-18T20:28:34.430Z,85.20
2023-02-18T20:30:41.496Z,85.40
2023-02-18T20:32:48.433Z,85.30
2023-02-18T20:34:55.441Z,85.20
2023-02-18T20:37:02.717Z,85.40
2023-02-18T20:39:16.295Z,85.30
2023-02-18T20:41:24.901Z,85.10
2023-02-18T20:43:34.036Z,84.70
2023-02-18T20:45:40.748Z,84.50
2023-02-18T20:47:47.773Z,84.50
2023-02-18T20:49:54.434Z,85.00
2023-02-18T20:52:01.413Z,84.90
2023-02-18T20:54:10.140Z,85.20
2023-02-18T20:56:17.192Z,85.60
2023-02-18T20:58:24.094Z,85.50
2023-02-18T21:00:32.922Z,85.40
2023-02-18T21:02:39.919Z,85.10
2023-02-18T21:04:47.632Z,84.80
2023-02-18T21:06:55.177Z,85.00
2023-02-18T21:09:02.092Z,85.30
2023-02-18T21:11:10.825Z,85.20
2023-02-18T21:13:18.103Z,85.10
2023-02-18T21:15:25.085Z,85.40
2023-02-18T21:17:34.005Z,86.00
2023-02-18T21:19:40.986Z,86.90
2023-02-18T21:21:49.134Z,87.40
2023-02-18T21:23:56.265Z,87.60
2023-02-18T21:26:08.393Z,87.40
2023-02-18T21:28:15.265Z,87.30
2023-02-18T21:30:22.799Z,87.00
2023-02-18T21:32:29.941Z,86.60
2023-02-18T21:34:39.635Z,86.40
2023-02-18T21:36:46.965Z,86.40
2023-02-18T21:38:58.491Z,86.80
2023-02-18T21:41:07.038Z,87.20
2023-02-18T21:43:14.747Z,87.60
2023-02-18T21:45:21.506Z,87.40
2023-02-18T21:47:28.661Z,87.40
2023-02-18T21:49:35.698Z,87.60
2023-02-18T21:52:02.901Z,88.10
2023-02-18T21:54:10.034Z,88.30
2023-02-18T21:56:17.676Z,88.30
2023-02-18T21:58:24.556Z,88.60
2023-02-18T22:00:31.787Z,88.90
2023-02-18T22:02:38.608Z,89.10
2023-02-18T22:04:45.994Z,89.30
2023-02-18T22:06:54.408Z,89.30
2023-02-18T22:09:04.348Z,89.20
2023-02-18T22:11:11.549Z,89.40
2023-02-18T22:13:19.023Z,89.30
2023-02-18T22:15:25.846Z,89.30
2023-02-18T22:17:33.134Z,89.30
2023-02-18T22:19:40.056Z,89.30
2023-02-18T22:21:47.289Z,89.60
2023-02-18T22:23:56.470Z,89.70
2023-02-18T22:26:07.908Z,90.00
2023-02-18T22:28:14.874Z,90.10
2023-02-18T22:30:22.544Z,90.30
2023-02-18T22:32:30.166Z,90.20
2023-02-18T22:34:37.339Z,90.40
2023-02-18T22:36:44.680Z,90.60
2023-02-18T22:38:54.115Z,91.00
2023-02-18T22:41:07.699Z,91.60
2023-02-18T22:43:15.278Z,92.00
2023-02-18T22:45:22.205Z,92.20
2023-02-18T22:47:29.231Z,92.90
2023-02-18T22:49:36.160Z,93.30
2023-02-18T22:51:45.191Z,93.40
2023-02-18T22:53:52.401Z,93.40
2023-02-18T22:56:05.014Z,93.30
2023-02-18T22:58:11.795Z,93.10
2023-02-18T23:00:19.749Z,93.20
2023-02-18T23:02:26.522Z,93.10
2023-02-18T23:04:33.651Z,92.90
2023-02-18T23:06:41.774Z,92.80
2023-02-18T23:08:48.781Z,92.70
2023-02-18T23:11:06.101Z,92.60
2023-02-18T23:13:13.376Z,92.50
2023-02-18T23:15:20.246Z,92.50
2023-02-18T23:17:27.236Z,92.70
2023-02-18T23:19:35.272Z,92.50
2023-02-18T23:21:42.471Z,92.30
2023-02-18T23:23:51.066Z,92.30
2023-02-18T23:26:03.158Z,92.20
2023-02-18T23:28:11.807Z,92.30
2023-02-18T23:30:19.194Z,92.30
2023-02-18T23:32:25.897Z,92.30
2023-02-18T23:34:33.060Z,92.60
2023-02-18T23:36:40.199Z,92.50
2023-02-18T23:38:50.115Z,92.40
2023-02-18T23:40:57.039Z,92.50
2023-02-18T23:43:04.579Z,92.30
2023-02-18T23:45:13.325Z,92.00
2023-02-18T23:47:20.288Z,91.50
2023-02-18T23:49:29.761Z,91.40
2023-02-18T23:51:37.394Z,91.40
2023-02-18T23:53:44.377Z,91.50
2023-02-18T23:55:51.566Z,91.60
2023-02-18T23:57:58.830Z,91.70
